createdAt,value
2022-10-11T00:02:12.975Z,20.55
2022-10-11T00:05:17.675Z,24.45
2022-10-11T00:08:22.276Z,27.08
2022-10-11T00:11:27.206Z,22.13
2022-10-11T00:14:34.006Z,26.88
2022-10-11T00:17:38.783Z,26.65
2022-10-11T00:20:43.296Z,24.45
2022-10-11T00:23:48.592Z,23.48
2022-10-11T00:26:52.827Z,20.55
2022-10-11T00:29:57.287Z,18.02
2022-10-11T00:33:01.655Z,19.45
2022-10-11T00:36:07.759Z,28.02
2022-10-11T00:39:14.494Z,20.98
2022-10-11T00:42:19.298Z,17.52
2022-10-11T00:45:26.737Z,20.77
2022-10-11T00:48:42.958Z,31.25
2022-10-11T00:51:58.547Z,26.00
2022-10-11T00:55:13.430Z,15.38
2022-10-11T00:58:18.609Z,18.02
2022-10-11T01:01:22.768Z,25.92
2022-10-11T01:04:27.472Z,20.05
2022-10-11T01:07:33.338Z,35.28
2022-10-11T01:10:37.729Z,20.42
2022-10-11T01:14:09.670Z,20.77
2022-10-11T01:17:35.772Z,21.05
2022-10-11T01:20:49.421Z,24.98
2022-10-11T01:24:29.083Z,26.58
2022-10-11T01:27:54.842Z,26.67
2022-10-11T01:31:26.644Z,22.75
2022-10-11T01:34:33.808Z,20.73
2022-10-11T01:37:43.358Z,25.70
2022-10-11T01:40:52.862Z,20.65
2022-10-11T01:44:01.733Z,16.13
2022-10-11T01:47:06.331Z,21.83
2022-10-11T01:50:45.489Z,19.98
2022-10-11T01:54:07.562Z,21.75
2022-10-11T01:57:51.058Z,19.77
2022-10-11T02:01:02.436Z,10.23
2022-10-11T02:04:18.899Z,19.48
2022-10-11T02:07:24.494Z,19.90
2022-10-11T02:10:46.150Z,16.02
2022-10-11T02:14:08.943Z,17.88
2022-10-11T02:17:18.074Z,27.90
2022-10-11T02:20:26.168Z,21.90
2022-10-11T02:23:35.238Z,19.55
2022-10-11T02:26:43.790Z,24.90
2022-10-11T02:29:51.346Z,20.50
2022-10-11T02:32:57.303Z,23.90
2022-10-11T02:36:10.978Z,12.75
2022-10-11T02:39:23.418Z,19.52
2022-10-11T02:42:33.857Z,24.95
2022-10-11T02:45:51.165Z,23.83
2022-10-11T02:48:55.392Z,26.88
2022-10-11T02:51:59.986Z,21.52
2022-10-11T02:55:04.945Z,21.85
2022-10-11T02:58:09.061Z,22.67
2022-10-11T03:01:13.539Z,24.92
2022-10-11T03:07:22.175Z,27.60
2022-10-11T03:10:26.599Z,29.27
2022-10-11T03:13:30.876Z,18.45
2022-10-11T03:16:35.372Z,24.60
2022-10-11T03:19:39.846Z,17.20
2022-10-11T03:22:44.309Z,28.58
2022-10-11T03:25:48.798Z,15.50
2022-10-11T03:28:53.186Z,22.58
2022-10-11T03:31:57.519Z,32.58
2022-10-11T03:35:02.343Z,31.50
2022-10-11T03:38:11.104Z,34.45
2022-10-11T03:41:17.296Z,25.63
2022-10-11T03:44:21.798Z,22.35
2022-10-11T03:47:26.189Z,23.75
2022-10-11T03:50:31.324Z,27.90
2022-10-11T03:56:39.581Z,24.50
2022-10-11T03:59:44.312Z,33.75
2022-10-11T04:02:48.715Z,27.30
2022-10-11T04:05:53.042Z,20.75
2022-10-11T04:08:57.293Z,29.60
2022-10-11T04:12:01.750Z,33.05
2022-10-11T04:15:07.497Z,32.03
2022-10-11T04:18:12.019Z,25.33
2022-10-11T04:21:16.675Z,21.90
2022-10-11T04:24:20.802Z,27.70
2022-10-11T04:27:28.718Z,23.35
2022-10-11T04:30:33.252Z,28.38
2022-10-11T04:33:37.686Z,30.70
2022-10-11T04:36:45.246Z,26.38
2022-10-11T04:39:52.560Z,36.15
2022-10-11T04:42:57.106Z,23.45
2022-10-11T04:46:01.699Z,24.13
2022-10-11T04:49:06.300Z,25.00
2022-10-11T04:52:10.737Z,24.58
2022-10-11T04:55:15.076Z,21.95
2022-10-11T04:58:19.567Z,26.52
2022-10-11T05:01:23.870Z,26.45
2022-10-11T05:04:28.626Z,26.40
2022-10-11T05:07:33.100Z,21.58
2022-10-11T05:10:37.389Z,27.13
2022-10-11T05:13:41.958Z,31.75
2022-10-11T05:16:46.411Z,26.45
2022-10-11T05:19:50.875Z,25.55
2022-10-11T05:22:55.181Z,28.85
2022-10-11T05:26:00.565Z,31.00
2022-10-11T05:29:05.039Z,23.52
2022-10-11T05:32:09.688Z,21.35
2022-10-11T05:35:14.568Z,17.55
2022-10-11T05:38:19.043Z,24.52
2022-10-11T05:41:23.211Z,20.52
2022-10-11T05:44:27.763Z,28.95
2022-10-11T05:47:32.524Z,22.75
2022-10-11T05:50:37.498Z,22.20
2022-10-11T05:53:41.818Z,25.95
2022-10-11T05:56:45.913Z,21.17
2022-10-11T05:59:50.420Z,24.15
2022-10-11T06:02:54.816Z,28.55
2022-10-11T06:06:02.662Z,29.67
2022-10-11T06:09:07.452Z,19.80
2022-10-11T06:12:12.115Z,29.88
2022-10-11T06:15:17.426Z,18.05
2022-10-11T06:18:21.839Z,32.08
2022-10-11T06:21:26.427Z,25.50
2022-10-11T06:24:31.046Z,23.52
2022-10-11T06:27:35.556Z,30.20
2022-10-11T06:30:39.908Z,25.27
2022-10-11T06:33:44.217Z,28.50
2022-10-11T06:36:48.649Z,22.25
2022-10-11T06:39:53.165Z,24.90
2022-10-11T06:42:57.895Z,25.10
2022-10-11T06:46:02.419Z,29.17
2022-10-11T06:49:07.771Z,22.05
2022-10-11T06:52:12.328Z,28.70
2022-10-11T06:55:16.932Z,23.33
2022-10-11T07:01:27.098Z,25.35
2022-10-11T07:04:33.737Z,25.48
2022-10-11T07:07:37.933Z,17.92
2022-10-11T07:10:42.330Z,28.58
2022-10-11T07:13:51.625Z,23.50
2022-10-11T07:16:56.121Z,23.77
2022-10-11T07:20:00.698Z,21.90
2022-10-11T07:23:05.029Z,26.55
2022-10-11T07:26:10.877Z,27.15
2022-10-11T07:29:14.799Z,22.73
2022-10-11T07:32:19.119Z,17.92
2022-10-11T07:35:23.520Z,21.80
2022-10-11T07:38:28.117Z,23.38
2022-10-11T07:41:32.648Z,28.40
2022-10-11T07:44:36.848Z,27.63
2022-10-11T07:47:41.149Z,19.40
2022-10-11T07:50:45.597Z,21.80
2022-10-11T07:53:52.562Z,15.55
2022-10-11T07:56:57.074Z,25.77
2022-10-11T08:00:01.502Z,21.23
2022-10-11T08:03:15.934Z,13.68
2022-10-11T08:06:23.027Z,22.75
2022-10-11T08:09:28.022Z,18.48
2022-10-11T08:12:32.376Z,15.73
2022-10-11T08:15:36.811Z,25.98
2022-10-11T08:18:41.556Z,17.35
2022-10-11T08:21:45.953Z,16.35
2022-10-11T08:27:55.330Z,22.60
2022-10-11T08:30:59.726Z,17.80
2022-10-11T08:34:04.152Z,22.63
2022-10-11T08:37:08.615Z,15.80
2022-10-11T08:40:17.241Z,27.58
2022-10-11T08:43:47.975Z,23.63
2022-10-11T08:47:01.769Z,12.77
2022-10-11T08:50:12.034Z,20.23
2022-10-11T08:53:48.958Z,15.40
2022-10-11T08:56:53.376Z,27.45
2022-10-11T09:03:23.892Z,25.33
2022-10-11T09:06:37.200Z,19.40
2022-10-11T09:10:09.400Z,18.45
2022-10-11T09:13:19.770Z,12.60
2022-10-11T09:16:47.758Z,19.52
2022-10-11T09:19:57.719Z,18.20
2022-10-11T09:23:27.360Z,17.67
2022-10-11T09:26:51.799Z,15.40
2022-10-11T09:30:14.902Z,21.67
2022-10-11T09:33:34.681Z,21.90
2022-10-11T09:36:47.164Z,17.27
2022-10-11T09:39:57.336Z,22.85
2022-10-11T09:43:01.709Z,20.80
2022-10-11T09:46:42.357Z,16.58
2022-10-11T09:49:58.616Z,25.48
2022-10-11T09:53:07.825Z,18.02
2022-10-11T09:56:13.135Z,25.40
2022-10-11T10:02:29.816Z,23.67
2022-10-11T10:05:37.509Z,17.13
2022-10-11T10:08:43.297Z,19.73
2022-10-11T10:11:47.730Z,22.55
2022-10-11T10:15:04.994Z,17.52
2022-10-11T10:18:24.455Z,13.93
2022-10-11T10:21:34.424Z,13.45
2022-10-11T10:24:42.870Z,10.60
2022-10-11T10:28:00.522Z,20.33
2022-10-11T10:31:20.681Z,12.43
2022-10-11T10:34:33.370Z,22.95
2022-10-11T10:37:58.981Z,7.88
2022-10-11T10:41:06.635Z,18.05
2022-10-11T10:44:11.715Z,14.52
2022-10-11T10:47:31.444Z,15.32
2022-10-11T10:50:55.902Z,19.02
2022-10-11T10:54:29.139Z,12.43
2022-10-11T10:58:05.367Z,9.77
2022-10-11T11:01:33.149Z,11.18
2022-10-11T11:04:38.275Z,12.20
2022-10-11T11:08:06.357Z,11.85
2022-10-11T11:11:44.472Z,11.60
2022-10-11T11:15:33.170Z,14.05
2022-10-11T11:18:51.250Z,11.15
2022-10-11T11:22:04.912Z,11.48
2022-10-11T11:25:32.014Z,12.00
2022-10-11T11:28:54.870Z,19.40
2022-10-11T11:32:18.038Z,15.55
2022-10-11T11:35:42.518Z,11.45
2022-10-11T11:38:55.581Z,10.73
2022-10-11T11:42:15.504Z,13.90
2022-10-11T11:46:01.127Z,14.40
2022-10-11T11:49:13.846Z,16.02
2022-10-11T11:52:41.583Z,7.82
2022-10-11T11:55:59.710Z,8.52
2022-10-11T11:59:28.812Z,21.15
2022-10-11T12:02:33.508Z,12.52
2022-10-11T12:05:38.210Z,11.65
2022-10-11T12:08:46.672Z,12.55
2022-10-11T12:11:56.386Z,12.00
2022-10-11T12:15:19.794Z,10.35
2022-10-11T12:18:24.672Z,10.68
2022-10-11T12:21:36.683Z,16.60
2022-10-11T12:24:59.416Z,8.55
2022-10-11T12:28:42.358Z,10.45
2022-10-11T12:32:11.358Z,13.52
2022-10-11T12:35:31.309Z,13.30
2022-10-11T12:38:40.071Z,8.48
2022-10-11T12:41:50.508Z,9.75
2022-10-11T12:45:13.677Z,12.25
2022-10-11T12:48:53.621Z,15.88
2022-10-11T12:52:03.733Z,12.23
2022-10-11T12:55:59.964Z,13.50
2022-10-11T12:59:06.561Z,11.57
2022-10-11T13:02:42.424Z,13.30
2022-10-11T13:05:51.003Z,11.73
2022-10-11T13:09:10.095Z,16.48
2022-10-11T13:12:23.404Z,9.82
2022-10-11T13:15:29.057Z,12.77
2022-10-11T13:18:33.617Z,11.38
2022-10-11T13:24:43.967Z,17.25
2022-10-11T13:27:50.230Z,13.32
2022-10-11T13:30:57.479Z,12.27
2022-10-11T13:34:01.680Z,11.10
2022-10-11T13:37:06.743Z,7.90
2022-10-11T13:40:16.999Z,7.43
2022-10-11T13:43:24.929Z,15.88
2022-10-11T13:46:31.256Z,12.52
2022-10-11T13:49:37.739Z,13.25
2022-10-11T13:53:11.429Z,11.68
2022-10-11T13:56:19.624Z,11.18
2022-10-11T13:59:27.384Z,9.50
2022-10-11T14:02:32.903Z,10.68
2022-10-11T14:05:41.192Z,9.07
2022-10-11T14:08:50.181Z,16.73
2022-10-11T14:11:55.155Z,9.50
2022-10-11T14:15:01.378Z,15.48
2022-10-11T14:18:31.685Z,16.60
2022-10-11T14:21:51.761Z,12.77
2022-10-11T14:24:56.012Z,13.32
2022-10-11T14:28:01.188Z,17.40
2022-10-11T14:31:05.649Z,8.05
2022-10-11T14:37:17.633Z,14.07
2022-10-11T14:40:25.818Z,18.50
2022-10-11T14:43:30.472Z,15.85
2022-10-11T14:49:45.744Z,24.45
2022-10-11T14:52:50.300Z,13.27
2022-10-11T14:55:55.876Z,13.98
2022-10-11T14:59:00.212Z,12.85
2022-10-11T15:06:21.981Z,19.08
2022-10-11T15:09:26.253Z,13.88
2022-10-11T15:12:30.452Z,15.82
2022-10-11T15:15:36.880Z,9.13
2022-10-11T15:18:41.271Z,13.77
2022-10-11T15:21:46.528Z,12.60
2022-10-11T15:24:51.874Z,10.80
2022-10-11T15:27:57.592Z,13.80
2022-10-11T15:31:02.011Z,14.18
2022-10-11T15:34:06.218Z,9.70
2022-10-11T15:37:12.202Z,14.48
2022-10-11T15:40:24.375Z,12.98
2022-10-11T15:43:30.123Z,16.38
2022-10-11T15:46:35.029Z,9.75
2022-10-11T15:49:39.298Z,14.95
2022-10-11T15:52:44.651Z,13.93
2022-10-11T15:55:54.008Z,11.10
2022-10-11T15:58:58.744Z,7.93
2022-10-11T16:02:03.288Z,16.17
2022-10-11T16:05:08.232Z,15.55
2022-10-11T16:08:13.172Z,12.98
2022-10-11T16:11:17.806Z,13.07
2022-10-11T16:14:22.297Z,13.00
2022-10-11T16:17:26.928Z,13.85
2022-10-11T16:20:31.415Z,10.38
2022-10-11T16:23:36.635Z,10.60
2022-10-11T16:26:40.703Z,10.70
2022-10-11T16:29:45.303Z,9.48
2022-10-11T16:32:49.996Z,14.73
2022-10-11T16:35:54.321Z,10.30
2022-10-11T16:39:00.341Z,16.27
2022-10-11T16:42:05.323Z,14.98
2022-10-11T16:45:10.293Z,9.70
2022-10-11T16:48:15.048Z,29.05
2022-10-11T16:51:19.687Z,11.50
2022-10-11T16:54:24.264Z,12.38
2022-10-11T17:00:33.174Z,9.40
2022-10-11T17:03:37.926Z,9.60
2022-10-11T17:06:43.959Z,15.60
2022-10-11T17:09:49.542Z,12.50
2022-10-11T17:12:55.344Z,19.92
2022-10-11T17:16:00.342Z,15.98
2022-10-11T17:19:08.914Z,14.40
2022-10-11T17:22:16.190Z,10.57
2022-10-11T17:25:21.730Z,12.13
2022-10-11T17:31:31.244Z,10.20
2022-10-11T17:34:36.492Z,11.00
2022-10-11T17:37:41.100Z,15.23
2022-10-11T17:43:50.992Z,8.48
2022-10-11T17:46:55.210Z,8.15
2022-10-11T17:49:59.587Z,6.30
2022-10-11T17:53:04.164Z,11.95
2022-10-11T17:56:11.115Z,12.40
2022-10-11T17:59:18.123Z,10.23
2022-10-11T18:02:22.374Z,14.27
2022-10-11T18:05:28.487Z,23.83
2022-10-11T18:08:40.759Z,14.70
2022-10-11T18:15:08.725Z,8.45
2022-10-11T18:18:21.946Z,16.73
2022-10-11T18:24:51.013Z,11.13
2022-10-11T18:27:59.340Z,15.13
2022-10-11T18:31:13.618Z,25.90
2022-10-11T18:41:10.130Z,13.65
2022-10-11T18:44:16.241Z,10.85
2022-10-11T18:47:20.659Z,16.30
2022-10-11T18:53:32.011Z,12.43
2022-10-11T18:56:37.195Z,14.77
2022-10-11T18:59:42.482Z,10.00
2022-10-11T19:02:47.368Z,11.07
2022-10-11T19:05:51.694Z,10.02
2022-10-11T19:09:21.502Z,12.25
2022-10-11T19:12:26.204Z,8.55
2022-10-11T19:15:35.966Z,17.98
2022-10-11T19:18:44.086Z,10.18
2022-10-11T19:21:50.227Z,14.65
2022-10-11T19:24:55.318Z,16.73
2022-10-11T19:27:59.943Z,13.45
2022-10-11T19:31:06.519Z,20.85
2022-10-11T19:34:16.519Z,10.82
2022-10-11T19:37:21.916Z,19.40
2022-10-11T19:40:35.098Z,21.60
2022-10-11T19:47:13.191Z,16.13
2022-10-11T19:50:19.665Z,16.13
2022-10-11T19:53:25.400Z,17.70
2022-10-11T19:56:32.847Z,16.95
2022-10-11T19:59:38.385Z,17.70
2022-10-11T20:02:45.388Z,13.98
2022-10-11T20:05:52.264Z,17.73
2022-10-11T20:09:23.855Z,16.92
2022-10-11T20:12:31.576Z,14.48
2022-10-11T20:15:40.686Z,14.65
2022-10-11T20:18:48.622Z,15.27
2022-10-11T20:21:55.658Z,7.65
2022-10-11T20:25:03.957Z,10.40
2022-10-11T20:28:10.600Z,18.65
2022-10-11T20:31:26.728Z,12.40
2022-10-11T20:34:32.270Z,16.25
2022-10-11T20:37:40.562Z,13.80
2022-10-11T20:40:45.646Z,15.95
2022-10-11T20:47:12.168Z,18.55
2022-10-11T20:50:22.107Z,22.75
2022-10-11T20:53:28.426Z,9.07
2022-10-11T20:56:33.903Z,18.92
2022-10-11T20:59:38.285Z,14.05
2022-10-11T21:02:43.027Z,15.55
2022-10-11T21:05:47.230Z,18.40
2022-10-11T21:08:51.725Z,18.30
2022-10-11T21:11:56.226Z,11.40
2022-10-11T21:15:00.619Z,17.52
2022-10-11T21:18:04.846Z,12.33
2022-10-11T21:21:14.028Z,14.48
2022-10-11T21:24:18.469Z,12.43
2022-10-11T21:27:24.693Z,15.55
2022-10-11T21:30:29.322Z,14.80
2022-10-11T21:33:34.619Z,13.88
2022-10-11T21:36:39.003Z,15.45
2022-10-11T21:39:43.393Z,15.05
2022-10-11T21:42:47.915Z,18.98
2022-10-11T21:45:52.210Z,11.48
2022-10-11T21:48:57.179Z,15.32
2022-10-11T21:52:01.839Z,10.38
2022-10-11T21:55:06.400Z,14.95
2022-10-11T21:58:10.302Z,21.43
2022-10-11T22:01:16.061Z,11.23
2022-10-11T22:04:20.659Z,13.93
2022-10-11T22:07:25.086Z,18.35
2022-10-11T22:10:29.479Z,11.43
2022-10-11T22:13:34.695Z,8.02
2022-10-11T22:16:39.093Z,20.85
2022-10-11T22:19:43.540Z,13.50
2022-10-11T22:22:48.022Z,11.10
2022-10-11T22:25:52.491Z,12.65
2022-10-11T22:28:57.969Z,15.05
2022-10-11T22:32:02.115Z,12.25
2022-10-11T22:35:06.753Z,14.30
2022-10-11T22:38:11.104Z,16.73
2022-10-11T22:41:15.415Z,30.08
2022-10-11T22:44:19.722Z,11.95
2022-10-11T22:47:24.099Z,16.35
2022-10-11T22:50:28.494Z,17.42
2022-10-11T22:53:33.026Z,13.77
2022-10-11T22:56:37.483Z,13.52
2022-10-11T22:59:41.991Z,8.60
2022-10-11T23:02:46.718Z,14.43
2022-10-11T23:08:59.743Z,9.57
2022-10-11T23:12:04.371Z,19.67
2022-10-11T23:15:09.146Z,12.68
2022-10-11T23:18:15.748Z,13.90
2022-10-11T23:21:20.515Z,11.35
2022-10-11T23:24:24.712Z,20.17
2022-10-11T23:27:30.223Z,12.80
2022-10-11T23:30:34.481Z,18.17
2022-10-11T23:33:38.966Z,10.88
2022-10-11T23:36:43.609Z,15.15
2022-10-11T23:39:48.091Z,20.05
2022-10-11T23:42:52.372Z,13.98
2022-10-11T23:45:57.284Z,9.07
2022-10-11T23:49:02.030Z,11.75
2022-10-11T23:52:06.543Z,14.57
2022-10-11T23:55:11.077Z,11.57
2022-10-11T23:58:15.459Z,14.05
